sensor_id;sensor_type;location;lat;lon;timestamp;pressure;altitude;pressure_sealevel;temperature;humidity
21730;BME280;11027;51.030;13.812;2022-10-31T00:00:54;100628.81;;;13.35;85.38
21730;BME280;11027;51.030;13.812;2022-10-31T00:03:20;100622.38;;;13.28;85.48
21730;BME280;11027;51.030;13.812;2022-10-31T00:05:46;100620.69;;;13.27;85.80
21730;BME280;11027;51.030;13.812;2022-10-31T00:08:11;100630.41;;;13.30;85.56
21730;BME280;11027;51.030;13.812;2022-10-31T00:10:40;100622.38;;;13.28;85.38
21730;BME280;11027;51.030;13.812;2022-10-31T00:13:05;100629.06;;;13.26;85.25
21730;BME280;11027;51.030;13.812;2022-10-31T00:15:32;100625.66;;;13.24;85.23
21730;BME280;11027;51.030;13.812;2022-10-31T00:17:58;100626.91;;;13.21;85.46
21730;BME280;11027;51.030;13.812;2022-10-31T00:20:23;100633.78;;;13.17;85.18
21730;BME280;11027;51.030;13.812;2022-10-31T00:22:48;100632.72;;;13.18;85.32
21730;BME280;11027;51.030;13.812;2022-10-31T00:25:13;100633.78;;;13.17;85.35
21730;BME280;11027;51.030;13.812;2022-10-31T00:27:38;100635.19;;;13.13;85.12
21730;BME280;11027;51.030;13.812;2022-10-31T00:30:04;100636.78;;;13.07;85.50
21730;BME280;11027;51.030;13.812;2022-10-31T00:32:29;100646.38;;;13.03;85.62
21730;BME280;11027;51.030;13.812;2022-10-31T00:34:55;100642.59;;;13.04;85.68
21730;BME280;11027;51.030;13.812;2022-10-31T00:37:20;100646.19;;;13.05;85.39
21730;BME280;11027;51.030;13.812;2022-10-31T00:39:45;100642.78;;;13.02;85.64
21730;BME280;11027;51.030;13.812;2022-10-31T00:42:12;100642.13;;;13.00;85.64
21730;BME280;11027;51.030;13.812;2022-10-31T00:44:37;100639.75;;;12.97;85.96
21730;BME280;11027;51.030;13.812;2022-10-31T00:47:02;100637.38;;;12.94;86.46
21730;BME280;11027;51.030;13.812;2022-10-31T00:49:28;100642.00;;;12.94;86.36
21730;BME280;11027;51.030;13.812;2022-10-31T00:51:53;100646.66;;;12.93;86.68
21730;BME280;11027;51.030;13.812;2022-10-31T00:54:18;100642.84;;;12.94;86.31
21730;BME280;11027;51.030;13.812;2022-10-31T00:56:43;100644.94;;;12.92;86.05
21730;BME280;11027;51.030;13.812;2022-10-31T00:59:08;100651.81;;;12.88;86.47
21730;BME280;11027;51.030;13.812;2022-10-31T01:01:33;100643.59;;;12.88;86.00
21730;BME280;11027;51.030;13.812;2022-10-31T01:03:59;100641.91;;;12.87;85.89
21730;BME280;11027;51.030;13.812;2022-10-31T01:06:24;100636.78;;;12.84;86.01
21730;BME280;11027;51.030;13.812;2022-10-31T01:08:49;100646.41;;;12.80;86.04
21730;BME280;11027;51.030;13.812;2022-10-31T01:11:19;100651.88;;;12.80;86.26
21730;BME280;11027;51.030;13.812;2022-10-31T01:13:46;100643.84;;;12.78;85.92
21730;BME280;11027;51.030;13.812;2022-10-31T01:16:12;100653.94;;;12.78;85.80
21730;BME280;11027;51.030;13.812;2022-10-31T01:18:38;100647.81;;;12.76;86.37
21730;BME280;11027;51.030;13.812;2022-10-31T01:21:04;100642.91;;;12.71;86.13
21730;BME280;11027;51.030;13.812;2022-10-31T01:23:30;100652.31;;;12.69;86.26
21730;BME280;11027;51.030;13.812;2022-10-31T01:25:59;100651.66;;;12.67;86.62
21730;BME280;11027;51.030;13.812;2022-10-31T01:28:24;100661.53;;;12.68;86.62
21730;BME280;11027;51.030;13.812;2022-10-31T01:30:49;100655.06;;;12.69;86.40
21730;BME280;11027;51.030;13.812;2022-10-31T01:33:14;100654.38;;;12.67;86.60
21730;BME280;11027;51.030;13.812;2022-10-31T01:35:39;100651.66;;;12.67;86.17
21730;BME280;11027;51.030;13.812;2022-10-31T01:38:05;100651.16;;;12.63;86.69
21730;BME280;11027;51.030;13.812;2022-10-31T01:40:30;100648.59;;;12.61;86.57
21730;BME280;11027;51.030;13.812;2022-10-31T01:42:55;100641.81;;;12.57;86.46
21730;BME280;11027;51.030;13.812;2022-10-31T01:45:20;100650.16;;;12.56;86.47
21730;BME280;11027;51.030;13.812;2022-10-31T01:47:46;100644.25;;;12.52;86.81
21730;BME280;11027;51.030;13.812;2022-10-31T01:50:14;100652.63;;;12.51;86.60
21730;BME280;11027;51.030;13.812;2022-10-31T01:52:41;100661.00;;;12.49;86.52
21730;BME280;11027;51.030;13.812;2022-10-31T01:55:09;100656.91;;;12.45;86.82
21730;BME280;11027;51.030;13.812;2022-10-31T01:57:37;100657.09;;;12.44;86.68
21730;BME280;11027;51.030;13.812;2022-10-31T02:00:04;100658.31;;;12.41;86.68
21730;BME280;11027;51.030;13.812;2022-10-31T02:02:31;100656.59;;;12.40;86.91
21730;BME280;11027;51.030;13.812;2022-10-31T02:04:56;100657.81;;;12.37;86.80
21730;BME280;11027;51.030;13.812;2022-10-31T02:07:24;100659.88;;;12.35;87.00
21730;BME280;11027;51.030;13.812;2022-10-31T02:09:50;100655.25;;;12.36;86.90
21730;BME280;11027;51.030;13.812;2022-10-31T02:12:16;100656.47;;;12.33;86.66
21730;BME280;11027;51.030;13.812;2022-10-31T02:14:42;100655.97;;;12.30;86.88
21730;BME280;11027;51.030;13.812;2022-10-31T02:17:07;100657.69;;;12.31;86.61
21730;BME280;11027;51.030;13.812;2022-10-31T02:19:49;100658.72;;;12.30;86.66
21730;BME280;11027;51.030;13.812;2022-10-31T02:22:39;100661.66;;;12.28;86.55
21730;BME280;11027;51.030;13.812;2022-10-31T02:30:39;100665.44;;;12.19;86.76
21730;BME280;11027;51.030;13.812;2022-10-31T02:33:11;100666.66;;;12.16;86.77
21730;BME280;11027;51.030;13.812;2022-10-31T02:35:41;100665.31;;;12.12;86.69
21730;BME280;11027;51.030;13.812;2022-10-31T02:38:13;100671.97;;;12.10;86.62
21730;BME280;11027;51.030;13.812;2022-10-31T02:43:31;100667.72;;;12.07;86.83
21730;BME280;11027;51.030;13.812;2022-10-31T02:48:38;100671.84;;;12.03;86.71
21730;BME280;11027;51.030;13.812;2022-10-31T02:51:04;100675.25;;;12.05;86.55
21730;BME280;11027;51.030;13.812;2022-10-31T02:53:34;100679.34;;;12.01;86.77
21730;BME280;11027;51.030;13.812;2022-10-31T02:56:02;100680.41;;;12.00;86.78
21730;BME280;11027;51.030;13.812;2022-10-31T02:58:31;100687.53;;;12.01;86.72
21730;BME280;11027;51.030;13.812;2022-10-31T03:01:03;100674.59;;;11.95;86.99
21730;BME280;11027;51.030;13.812;2022-10-31T03:03:44;100685.22;;;11.90;87.29
21730;BME280;11027;51.030;13.812;2022-10-31T03:08:53;100698.69;;;11.83;87.53
21730;BME280;11027;51.030;13.812;2022-10-31T03:11:21;100689.31;;;11.77;87.94
21730;BME280;11027;51.030;13.812;2022-10-31T03:13:54;100691.72;;;11.72;88.11
21730;BME280;11027;51.030;13.812;2022-10-31T03:19:06;100693.78;;;11.70;88.02
21730;BME280;11027;51.030;13.812;2022-10-31T03:21:40;100692.94;;;11.70;87.72
21730;BME280;11027;51.030;13.812;2022-10-31T03:24:09;100700.59;;;11.74;87.53
21730;BME280;11027;51.030;13.812;2022-10-31T03:26:35;100695.47;;;11.71;87.37
21730;BME280;11027;51.030;13.812;2022-10-31T03:29:03;100689.66;;;11.74;87.02
21730;BME280;11027;51.030;13.812;2022-10-31T03:31:36;100691.72;;;11.72;87.08
21730;BME280;11027;51.030;13.812;2022-10-31T03:34:04;100695.84;;;11.68;87.18
21730;BME280;11027;51.030;13.812;2022-10-31T03:36:31;100702.28;;;11.67;87.36
21730;BME280;11027;51.030;13.812;2022-10-31T03:38:57;100699.56;;;11.67;87.34
21730;BME280;11027;51.030;13.812;2022-10-31T03:41:25;100705.03;;;11.67;87.17
21730;BME280;11027;51.030;13.812;2022-10-31T03:43:59;100697.22;;;11.64;87.04
21730;BME280;11027;51.030;13.812;2022-10-31T03:46:26;100710.84;;;11.64;87.27
21730;BME280;11027;51.030;13.812;2022-10-31T03:48:52;100702.31;;;11.59;87.16
21730;BME280;11027;51.030;13.812;2022-10-31T03:51:36;100712.56;;;11.57;87.25
21730;BME280;11027;51.030;13.812;2022-10-31T03:59:14;100709.69;;;11.50;86.82
21730;BME280;11027;51.030;13.812;2022-10-31T04:01:43;100708.84;;;11.50;86.63
21730;BME280;11027;51.030;13.812;2022-10-31T04:04:09;100701.34;;;11.52;86.93
21730;BME280;11027;51.030;13.812;2022-10-31T04:06:36;100710.91;;;11.48;86.61
21730;BME280;11027;51.030;13.812;2022-10-31T04:09:03;100705.25;;;11.41;86.70
21730;BME280;11027;51.030;13.812;2022-10-31T04:11:31;100709.88;;;11.40;86.87
21730;BME280;11027;51.030;13.812;2022-10-31T04:13:58;100708.88;;;11.33;86.97
21730;BME280;11027;51.030;13.812;2022-10-31T04:16:26;100717.38;;;11.30;87.08
21730;BME280;11027;51.030;13.812;2022-10-31T04:18:52;100709.19;;;11.30;87.23
21730;BME280;11027;51.030;13.812;2022-10-31T04:21:18;100712.97;;;11.29;86.85
21730;BME280;11027;51.030;13.812;2022-10-31T04:23:43;100716.38;;;11.31;86.66
21730;BME280;11027;51.030;13.812;2022-10-31T04:26:11;100714.66;;;11.30;86.32
21730;BME280;11027;51.030;13.812;2022-10-31T04:28:37;100721.31;;;11.28;86.46
21730;BME280;11027;51.030;13.812;2022-10-31T04:31:02;100719.13;;;11.23;86.75
21730;BME280;11027;51.030;13.812;2022-10-31T04:33:27;100713.97;;;11.20;86.53
21730;BME280;11027;51.030;13.812;2022-10-31T04:35:53;100710.25;;;11.21;86.37
21730;BME280;11027;51.030;13.812;2022-10-31T04:38:18;100719.59;;;11.18;86.51
21730;BME280;11027;51.030;13.812;2022-10-31T04:40:45;100718.75;;;11.18;86.73
21730;BME280;11027;51.030;13.812;2022-10-31T04:43:10;100717.75;;;11.19;86.46
21730;BME280;11027;51.030;13.812;2022-10-31T04:45:35;100717.91;;;11.17;86.64
21730;BME280;11027;51.030;13.812;2022-10-31T04:48:01;100714.34;;;11.17;86.44
21730;BME280;11027;51.030;13.812;2022-10-31T04:50:27;100717.56;;;11.12;86.80
21730;BME280;11027;51.030;13.812;2022-10-31T04:52:52;100723.19;;;11.11;86.76
21730;BME280;11027;51.030;13.812;2022-10-31T04:55:17;100724.53;;;11.07;86.96
21730;BME280;11027;51.030;13.812;2022-10-31T04:57:47;100723.69;;;11.06;86.84
21730;BME280;11027;51.030;13.812;2022-10-31T05:00:15;100728.63;;;11.02;86.57
21730;BME280;11027;51.030;13.812;2022-10-31T05:02:48;100728.63;;;11.02;86.58
21730;BME280;11027;51.030;13.812;2022-10-31T05:05:14;100725.22;;;11.00;86.51
21730;BME280;11027;51.030;13.812;2022-10-31T05:07:42;100723.53;;;10.99;85.98
21730;BME280;11027;51.030;13.812;2022-10-31T05:10:09;100718.75;;;10.93;86.24
21730;BME280;11027;51.030;13.812;2022-10-31T05:12:35;100723.69;;;10.90;86.24
21730;BME280;11027;51.030;13.812;2022-10-31T05:15:00;100730.34;;;10.87;86.51
21730;BME280;11027;51.030;13.812;2022-10-31T05:17:26;100725.06;;;10.86;86.26
21730;BME280;11027;51.030;13.812;2022-10-31T05:19:51;100725.22;;;10.84;86.54
21730;BME280;11027;51.030;13.812;2022-10-31T05:22:16;100725.22;;;10.84;86.39
21730;BME280;11027;51.030;13.812;2022-10-31T05:24:41;100727.94;;;10.84;86.24
21730;BME280;11027;51.030;13.812;2022-10-31T05:27:06;100725.38;;;10.82;86.31
21730;BME280;11027;51.030;13.812;2022-10-31T05:29:32;100728.47;;;10.79;86.12
21730;BME280;11027;51.030;13.812;2022-10-31T05:31:58;100729.97;;;10.74;85.95
21730;BME280;11027;51.030;13.812;2022-10-31T05:34:23;100730.81;;;10.74;86.13
21730;BME280;11027;51.030;13.812;2022-10-31T05:36:48;100744.28;;;10.76;85.71
21730;BME280;11027;51.030;13.812;2022-10-31T05:39:14;100737.47;;;10.72;85.66
21730;BME280;11027;51.030;13.812;2022-10-31T05:41:39;100743.09;;;10.70;85.65
21730;BME280;11027;51.030;13.812;2022-10-31T05:44:04;100741.38;;;10.69;85.61
21730;BME280;11027;51.030;13.812;2022-10-31T05:46:29;100746.16;;;10.67;85.52
21730;BME280;11027;51.030;13.812;2022-10-31T05:48:54;100747.34;;;10.65;85.78
21730;BME280;11027;51.030;13.812;2022-10-31T05:51:20;100738.97;;;10.66;85.89
21730;BME280;11027;51.030;13.812;2022-10-31T05:53:45;100747.34;;;10.65;85.79
21730;BME280;11027;51.030;13.812;2022-10-31T05:56:10;100749.03;;;10.66;85.92
21730;BME280;11027;51.030;13.812;2022-10-31T05:58:36;100757.06;;;10.67;85.96
21730;BME280;11027;51.030;13.812;2022-10-31T06:01:01;100761.81;;;10.65;86.06
21730;BME280;11027;51.030;13.812;2022-10-31T06:03:26;100759.25;;;10.64;86.01
21730;BME280;11027;51.030;13.812;2022-10-31T06:05:51;100764.69;;;10.64;85.95
21730;BME280;11027;51.030;13.812;2022-10-31T06:08:16;100758.56;;;10.61;86.29
21730;BME280;11027;51.030;13.812;2022-10-31T06:10:41;100763.16;;;10.61;86.53
21730;BME280;11027;51.030;13.812;2022-10-31T06:13:07;100755.16;;;10.59;86.49
21730;BME280;11027;51.030;13.812;2022-10-31T06:15:32;100766.06;;;10.59;86.75
21730;BME280;11027;51.030;13.812;2022-10-31T06:17:58;100758.91;;;10.58;86.91
21730;BME280;11027;51.030;13.812;2022-10-31T06:20:23;100757.53;;;10.54;87.36
21730;BME280;11027;51.030;13.812;2022-10-31T06:22:48;100776.63;;;10.54;87.25
21730;BME280;11027;51.030;13.812;2022-10-31T06:25:14;100765.72;;;10.54;87.50
21730;BME280;11027;51.030;13.812;2022-10-31T06:27:39;100771.50;;;10.59;87.68
21730;BME280;11027;51.030;13.812;2022-10-31T06:30:04;100772.19;;;10.61;87.62
21730;BME280;11027;51.030;13.812;2022-10-31T06:32:29;100778.69;;;10.60;87.45
21730;BME280;11027;51.030;13.812;2022-10-31T06:34:55;100780.06;;;10.65;87.14
21730;BME280;11027;51.030;13.812;2022-10-31T06:37:20;100785.16;;;10.68;86.93
21730;BME280;11027;51.030;13.812;2022-10-31T06:39:45;100785.16;;;10.68;86.96
21730;BME280;11027;51.030;13.812;2022-10-31T06:42:10;100788.91;;;10.67;87.14
21730;BME280;11027;51.030;13.812;2022-10-31T06:44:35;100791.63;;;10.67;86.94
21730;BME280;11027;51.030;13.812;2022-10-31T06:47:00;100796.41;;;10.65;87.15
21730;BME280;11027;51.030;13.812;2022-10-31T06:49:26;100793.31;;;10.68;87.52
21730;BME280;11027;51.030;13.812;2022-10-31T06:51:51;100794.00;;;10.70;87.32
21730;BME280;11027;51.030;13.812;2022-10-31T06:54:16;100793.69;;;10.73;87.42
21730;BME280;11027;51.030;13.812;2022-10-31T06:56:41;100797.09;;;10.75;87.31
21730;BME280;11027;51.030;13.812;2022-10-31T06:59:06;100805.28;;;10.75;87.56
21730;BME280;11027;51.030;13.812;2022-10-31T07:01:32;100795.06;;;10.77;87.85
21730;BME280;11027;51.030;13.812;2022-10-31T07:03:57;100808.72;;;10.85;88.07
21730;BME280;11027;51.030;13.812;2022-10-31T07:06:22;100815.19;;;10.92;88.41
21730;BME280;11027;51.030;13.812;2022-10-31T07:08:47;100804.50;;;10.99;88.52
21730;BME280;11027;51.030;13.812;2022-10-31T07:11:12;100808.38;;;11.05;88.66
21730;BME280;11027;51.030;13.812;2022-10-31T07:13:38;100813.16;;;11.11;88.91
21730;BME280;11027;51.030;13.812;2022-10-31T07:16:03;100816.25;;;11.16;89.06
21730;BME280;11027;51.030;13.812;2022-10-31T07:18:29;100823.25;;;11.18;88.91
21730;BME280;11027;51.030;13.812;2022-10-31T07:20:54;100813.22;;;11.19;88.89
21730;BME280;11027;51.030;13.812;2022-10-31T07:23:20;100816.44;;;11.23;88.79
21730;BME280;11027;51.030;13.812;2022-10-31T07:25:45;100816.63;;;11.21;88.56
21730;BME280;11027;51.030;13.812;2022-10-31T07:28:10;100824.81;;;11.21;88.72
21730;BME280;11027;51.030;13.812;2022-10-31T07:30:36;100819.34;;;11.21;88.37
21730;BME280;11027;51.030;13.812;2022-10-31T07:33:02;100819.00;;;11.24;88.11
21730;BME280;11027;51.030;13.812;2022-10-31T07:35:28;100821.88;;;11.23;88.16
21730;BME280;11027;51.030;13.812;2022-10-31T07:37:53;100822.75;;;11.23;88.15
21730;BME280;11027;51.030;13.812;2022-10-31T07:40:20;100821.03;;;11.22;88.40
21730;BME280;11027;51.030;13.812;2022-10-31T07:42:46;100823.91;;;11.20;88.44
21730;BME280;11027;51.030;13.812;2022-10-31T07:45:12;100825.66;;;11.21;88.93
21730;BME280;11027;51.030;13.812;2022-10-31T07:47:45;100817.47;;;11.21;89.04
21730;BME280;11027;51.030;13.812;2022-10-31T07:50:11;100821.03;;;11.22;89.28
21730;BME280;11027;51.030;13.812;2022-10-31T07:52:37;100826.50;;;11.22;89.62
21730;BME280;11027;51.030;13.812;2022-10-31T07:55:03;100828.91;;;11.25;89.88
21730;BME280;11027;51.030;13.812;2022-10-31T07:57:28;100832.78;;;11.31;89.61
21730;BME280;11027;51.030;13.812;2022-10-31T07:59:53;100826.50;;;11.38;89.94
21730;BME280;11027;51.030;13.812;2022-10-31T08:02:18;100825.81;;;11.45;90.01
21730;BME280;11027;51.030;13.812;2022-10-31T08:04:44;100829.59;;;11.52;90.22
21730;BME280;11027;51.030;13.812;2022-10-31T08:07:09;100822.91;;;11.63;90.41
21730;BME280;11027;51.030;13.812;2022-10-31T08:09:34;100820.19;;;11.71;90.37
21730;BME280;11027;51.030;13.812;2022-10-31T08:11:59;100825.13;;;11.75;89.96
21730;BME280;11027;51.030;13.812;2022-10-31T08:14:26;100822.91;;;11.79;89.78
21730;BME280;11027;51.030;13.812;2022-10-31T08:16:52;100823.41;;;11.82;89.54
21730;BME280;11027;51.030;13.812;2022-10-31T08:19:18;100824.09;;;11.85;89.46
21730;BME280;11027;51.030;13.812;2022-10-31T08:21:43;100813.84;;;11.87;89.38
21730;BME280;11027;51.030;13.812;2022-10-31T08:24:08;100819.84;;;11.90;89.18
21730;BME280;11027;51.030;13.812;2022-10-31T08:26:33;100818.66;;;11.93;89.73
21730;BME280;11027;51.030;13.812;2022-10-31T08:28:59;100819.50;;;11.93;89.52
21730;BME280;11027;51.030;13.812;2022-10-31T08:31:24;100812.84;;;11.96;89.56
21730;BME280;11027;51.030;13.812;2022-10-31T08:33:52;100811.13;;;11.95;89.47
21730;BME280;11027;51.030;13.812;2022-10-31T08:36:17;100822.91;;;11.95;89.79
21730;BME280;11027;51.030;13.812;2022-10-31T08:38:42;100818.31;;;11.96;90.21
21730;BME280;11027;51.030;13.812;2022-10-31T08:41:07;100821.72;;;11.98;90.25
21730;BME280;11027;51.030;13.812;2022-10-31T08:43:33;100820.16;;;12.04;90.37
21730;BME280;11027;51.030;13.812;2022-10-31T08:45:58;100813.13;;;12.09;90.41
21730;BME280;11027;51.030;13.812;2022-10-31T08:48:23;100818.28;;;12.12;90.34
21730;BME280;11027;51.030;13.812;2022-10-31T08:50:49;100812.28;;;12.17;90.23
21730;BME280;11027;51.030;13.812;2022-10-31T08:53:18;100817.19;;;12.21;90.12
21730;BME280;11027;51.030;13.812;2022-10-31T08:55:45;100815.81;;;12.26;90.32
21730;BME280;11027;51.030;13.812;2022-10-31T08:58:14;100811.03;;;12.28;90.05
21730;BME280;11027;51.030;13.812;2022-10-31T09:00:40;100822.47;;;12.31;90.15
21730;BME280;11027;51.030;13.812;2022-10-31T09:03:15;100815.63;;;12.35;90.13
21730;BME280;11027;51.030;13.812;2022-10-31T09:05:41;100815.09;;;12.40;89.79
21730;BME280;11027;51.030;13.812;2022-10-31T09:08:07;100812.69;;;12.45;89.92
21730;BME280;11027;51.030;13.812;2022-10-31T09:10:35;100816.94;;;12.48;90.10
21730;BME280;11027;51.030;13.812;2022-10-31T09:13:04;100816.59;;;12.51;89.96
21730;BME280;11027;51.030;13.812;2022-10-31T09:15:37;100821.19;;;12.58;90.15
21730;BME280;11027;51.030;13.812;2022-10-31T09:18:04;100822.69;;;12.61;89.88
21730;BME280;11027;51.030;13.812;2022-10-31T09:20:31;100822.16;;;12.66;90.10
21730;BME280;11027;51.030;13.812;2022-10-31T09:23:01;100827.94;;;12.71;89.86
21730;BME280;11027;51.030;13.812;2022-10-31T09:25:27;100834.75;;;12.75;90.04
21730;BME280;11027;51.030;13.812;2022-10-31T09:27:57;100832.31;;;12.80;90.49
21730;BME280;11027;51.030;13.812;2022-10-31T09:30:23;100828.19;;;12.84;90.46
21730;BME280;11027;51.030;13.812;2022-10-31T09:32:57;100829.53;;;12.88;90.05
21730;BME280;11027;51.030;13.812;2022-10-31T09:35:23;100825.41;;;12.92;90.03
21730;BME280;11027;51.030;13.812;2022-10-31T09:38:06;100817.53;;;12.97;90.18
21730;BME280;11027;51.030;13.812;2022-10-31T09:40:33;100820.56;;;13.02;89.97
21730;BME280;11027;51.030;13.812;2022-10-31T09:43:14;100824.47;;;13.08;90.21
21730;BME280;11027;51.030;13.812;2022-10-31T09:45:52;100820.16;;;13.14;89.77
21730;BME280;11027;51.030;13.812;2022-10-31T09:48:51;100810.22;;;13.21;89.86
21730;BME280;11027;51.030;13.812;2022-10-31T09:51:22;100811.88;;;13.30;89.51
21730;BME280;11027;51.030;13.812;2022-10-31T09:56:15;100812.13;;;13.44;89.60
21730;BME280;11027;51.030;13.812;2022-10-31T09:58:49;100812.41;;;13.49;89.52
21730;BME280;11027;51.030;13.812;2022-10-31T10:04:33;100802.72;;;13.61;89.65
21730;BME280;11027;51.030;13.812;2022-10-31T10:06:55;100805.75;;;13.66;89.30
21730;BME280;11027;51.030;13.812;2022-10-31T10:09:25;100805.00;;;13.72;89.65
21730;BME280;11027;51.030;13.812;2022-10-31T10:12:04;100806.81;;;13.80;89.28
21730;BME280;11027;51.030;13.812;2022-10-31T10:14:59;100799.75;;;13.86;89.11
21730;BME280;11027;51.030;13.812;2022-10-31T10:17:38;100804.50;;;13.92;88.84
21730;BME280;11027;51.030;13.812;2022-10-31T10:20:28;100795.69;;;13.96;88.73
21730;BME280;11027;51.030;13.812;2022-10-31T10:25:40;100795.88;;;14.10;88.30
21730;BME280;11027;51.030;13.812;2022-10-31T10:33:24;100784.34;;;14.29;87.58
21730;BME280;11027;51.030;13.812;2022-10-31T10:35:58;100781.03;;;14.34;87.20
21730;BME280;11027;51.030;13.812;2022-10-31T10:38:49;100780.28;;;14.40;87.02
21730;BME280;11027;51.030;13.812;2022-10-31T10:41:18;100777.81;;;14.45;86.82
21730;BME280;11027;51.030;13.812;2022-10-31T10:43:44;100769.47;;;14.53;86.19
21730;BME280;11027;51.030;13.812;2022-10-31T10:46:18;100769.81;;;14.58;85.83
21730;BME280;11027;51.030;13.812;2022-10-31T10:51:44;100760.22;;;14.69;85.27
21730;BME280;11027;51.030;13.812;2022-10-31T10:57:16;100765.28;;;14.87;84.53
21730;BME280;11027;51.030;13.812;2022-10-31T10:59:46;100755.19;;;14.94;84.18
21730;BME280;11027;51.030;13.812;2022-10-31T11:02:23;100759.91;;;15.00;83.88
21730;BME280;11027;51.030;13.812;2022-10-31T11:04:53;100753.63;;;15.07;83.43
21730;BME280;11027;51.030;13.812;2022-10-31T11:07:19;100755.41;;;15.14;82.96
21730;BME280;11027;51.030;13.812;2022-10-31T11:09:45;100751.31;;;15.25;82.57
21730;BME280;11027;51.030;13.812;2022-10-31T11:12:19;100749.25;;;15.34;82.39
21730;BME280;11027;51.030;13.812;2022-10-31T11:15:19;100743.44;;;15.44;82.38
21730;BME280;11027;51.030;13.812;2022-10-31T11:17:48;100746.03;;;15.52;81.94
21730;BME280;11027;51.030;13.812;2022-10-31T11:22:41;100735.78;;;15.67;81.93
21730;BME280;11027;51.030;13.812;2022-10-31T11:27:45;100730.25;;;15.89;81.80
21730;BME280;11027;51.030;13.812;2022-10-31T11:30:13;100726.50;;;15.96;81.49
21730;BME280;11027;51.030;13.812;2022-10-31T11:32:45;100722.75;;;16.04;81.48
21730;BME280;11027;51.030;13.812;2022-10-31T11:35:14;100727.00;;;16.13;81.16
21730;BME280;11027;51.030;13.812;2022-10-31T11:37:43;100716.47;;;16.24;81.30
21730;BME280;11027;51.030;13.812;2022-10-31T11:40:18;100712.53;;;16.33;80.89
21730;BME280;11027;51.030;13.812;2022-10-31T11:42:44;100705.56;;;16.44;80.84
21730;BME280;11027;51.030;13.812;2022-10-31T11:47:50;100701.84;;;16.65;79.96
21730;BME280;11027;51.030;13.812;2022-10-31T11:50:40;100703.97;;;16.76;79.89
21730;BME280;11027;51.030;13.812;2022-10-31T11:53:16;100709.09;;;16.86;79.58
21730;BME280;11027;51.030;13.812;2022-10-31T11:55:41;100698.53;;;16.96;79.53
21730;BME280;11027;51.030;13.812;2022-10-31T11:58:21;100699.84;;;17.07;78.63
21730;BME280;11027;51.030;13.812;2022-10-31T12:00:50;100696.63;;;17.16;78.68
21730;BME280;11027;51.030;13.812;2022-10-31T12:05:47;100681.19;;;17.35;77.01
21730;BME280;11027;51.030;13.812;2022-10-31T12:08:16;100682.88;;;17.43;77.12
21730;BME280;11027;51.030;13.812;2022-10-31T12:10:55;100682.88;;;17.50;76.82
21730;BME280;11027;51.030;13.812;2022-10-31T12:13:33;100679.44;;;17.61;76.96
21730;BME280;11027;51.030;13.812;2022-10-31T12:16:00;100673.28;;;17.72;76.80
21730;BME280;11027;51.030;13.812;2022-10-31T12:19:11;100667.53;;;17.80;76.34
21730;BME280;11027;51.030;13.812;2022-10-31T12:21:20;100666.06;;;17.91;75.56
21730;BME280;11027;51.030;13.812;2022-10-31T12:26:50;100659.00;;;18.09;74.16
21730;BME280;11027;51.030;13.812;2022-10-31T12:29:48;100654.69;;;18.19;74.11
21730;BME280;11027;51.030;13.812;2022-10-31T12:35:05;100647.38;;;18.45;73.68
21730;BME280;11027;51.030;13.812;2022-10-31T12:42:44;100638.69;;;18.80;73.05
21730;BME280;11027;51.030;13.812;2022-10-31T12:45:35;100632.66;;;18.90;72.65
21730;BME280;11027;51.030;13.812;2022-10-31T12:50:42;100636.34;;;19.09;71.80
21730;BME280;11027;51.030;13.812;2022-10-31T12:53:17;100629.03;;;19.21;71.07
21730;BME280;11027;51.030;13.812;2022-10-31T12:58:22;100623.66;;;19.45;70.63
21730;BME280;11027;51.030;13.812;2022-10-31T13:01:02;100619.06;;;19.57;69.94
21730;BME280;11027;51.030;13.812;2022-10-31T13:03:46;100620.25;;;19.68;69.52
21730;BME280;11027;51.030;13.812;2022-10-31T13:06:14;100611.91;;;19.74;69.25
21730;BME280;11027;51.030;13.812;2022-10-31T13:08:53;100616.50;;;19.81;68.17
21730;BME280;11027;51.030;13.812;2022-10-31T13:11:24;100615.13;;;19.90;68.02
21730;BME280;11027;51.030;13.812;2022-10-31T13:16:21;100608.53;;;20.51;67.01
21730;BME280;11027;51.030;13.812;2022-10-31T13:18:49;100607.81;;;20.86;65.99
21730;BME280;11027;51.030;13.812;2022-10-31T13:21:23;100595.44;;;21.24;64.19
21730;BME280;11027;51.030;13.812;2022-10-31T13:23:50;100592.44;;;21.61;62.97
21730;BME280;11027;51.030;13.812;2022-10-31T13:28:46;100578.31;;;22.15;59.92
21730;BME280;11027;51.030;13.812;2022-10-31T13:31:12;100577.53;;;22.20;59.65
21730;BME280;11027;51.030;13.812;2022-10-31T13:33:39;100579.06;;;22.10;60.13
21730;BME280;11027;51.030;13.812;2022-10-31T13:38:36;100581.91;;;21.75;60.10
21730;BME280;11027;51.030;13.812;2022-10-31T13:41:11;100578.34;;;21.63;60.16
21730;BME280;11027;51.030;13.812;2022-10-31T13:43:46;100570.16;;;21.56;60.12
21730;BME280;11027;51.030;13.812;2022-10-31T13:46:35;100575.09;;;21.54;60.28
21730;BME280;11027;51.030;13.812;2022-10-31T13:49:01;100572.94;;;21.56;60.18
21730;BME280;11027;51.030;13.812;2022-10-31T13:51:27;100569.06;;;21.57;59.71
21730;BME280;11027;51.030;13.812;2022-10-31T13:53:57;100569.06;;;21.57;59.49
21730;BME280;11027;51.030;13.812;2022-10-31T13:56:32;100565.44;;;21.56;59.31
21730;BME280;11027;51.030;13.812;2022-10-31T13:58:59;100563.50;;;21.57;59.23
21730;BME280;11027;51.030;13.812;2022-10-31T14:01:25;100559.66;;;21.58;59.18